• Join FlightAware (Why Join?)
  • Login
  • US Flag 
11:30PM EST


 

Airport Tracker/Info


-or-


 

Live Flight TrackerFlight Track Log ✈ N449ND ✈ 10-Apr-2014 ✈ KISM - KFPR

Flight Track Log - Related Links

Times and Time Zones

All times are in EDT time to prevent confusion due to time zone crossing. See the N449ND flight status page for this flight to view local times or setup timezone preferences in your user account.

Time Position Orientation Groundspeed Altitude Reporting Facility
EDT Latitude Longitude Course Direction KTS MPH feet Rate Location/Type
10:11PM 28.2667 -81.4167 142° Southeast 71 82 1,400  Level Orlando TRACON
10:12PM 28.2500 -81.4000 139° Southeast 64 74 2,000 579 Climbing Orlando TRACON
10:13PM 28.2500 -81.3833 90° East 65 75 2,500 526 Climbing Orlando TRACON
10:14PM 28.2333 -81.3667 139° Southeast 69 79 3,000 250 Climbing Orlando TRACON
10:15PM 28.2167 -81.3500 139° Southeast 89 102 3,000  Level Orlando TRACON
10:16PM 28.2772 -81.3621 101° East  Level FlightAware Approximate
10:16PM 28.2000 -81.3167 120° Southeast 90 104 3,000  Level Orlando TRACON
10:17PM 28.1833 -81.3000 139° Southeast 86 99 3,000  Level Orlando TRACON
10:18PM 28.1667 -81.2833 139° Southeast 84 97 3,000  Level Orlando TRACON
10:19PM 28.1500 -81.2500 120° Southeast 88 101 3,000  Level Orlando TRACON
10:20PM 28.1333 -81.2333 139° Southeast 91 105 3,000  Level Orlando TRACON
10:21PM 28.1167 -81.2167 139° Southeast 90 104 3,000  Level Orlando TRACON
10:23PM 28.1000 -81.1833 120° Southeast 89 102 3,000  Level Orlando TRACON
10:24PM 28.1000 -81.1667 90° East 87 100 3,000  Level Orlando TRACON
10:26PM 28.0656 -81.1208 130° Southeast 86 99 3,000  Level Miami Center
10:27PM 28.0492 -81.0939 125° Southeast 86 99 3,000  Level Miami Center
10:28PM 28.0353 -81.0731 127° Southeast 87 100 3,000  Level Miami Center
10:29PM 28.0214 -81.0497 124° Southeast 86 99 3,000 -49 Level Miami Center
10:30PM 28.0072 -81.0261 124° Southeast 87 100 2,900  Descending Miami Center
10:31PM 27.9956 -81.0044 121° Southeast 85 98 3,000  Climbing Miami Center
10:32PM 27.9808 -80.9814 126° Southeast 85 98 2,900  Descending Miami Center
10:33PM 27.9681 -80.9606 125° Southeast 85 98 3,000 49 Climbing Miami Center
10:34PM 27.9533 -80.9378 126° Southeast 85 98 3,000  Level Miami Center
10:35PM 27.9369 -80.9150 129° Southeast 85 98 3,000  Level Miami Center
10:36PM 27.9186 -80.8967 139° Southeast 89 102 3,000  Level Miami Center
10:37PM 27.8992 -80.8772 139° Southeast 90 104 3,000 -49 Level Miami Center
10:38PM 27.8803 -80.8575 137° Southeast 90 104 2,900  Descending Miami Center
10:39PM 27.8625 -80.8397 139° Southeast 89 102 3,000 49 Climbing Miami Center
10:40PM 27.8403 -80.8189 140° Southeast 94 108 3,000  Level Miami Center
10:41PM 27.8139 -80.8031 152° Southeast 110 127 3,000 -49 Level Miami Center
10:42PM 27.7883 -80.7964 167° South 103 119 2,900 -500 Descending Miami Center
10:43PM 27.7578 -80.7889 168° South 103 119 2,000 -446 Descending Miami Center
10:44PM 27.7319 -80.7819 167° South 94 108 2,000  Level Miami Center
10:45PM 27.7050 -80.7750 167° South 98 113 2,000 -49 Level Miami Center
10:46PM 27.6772 -80.7669 166° South 99 114 1,900  Descending Miami Center
10:47PM 27.6517 -80.7597 166° South 99 114 2,000 49 Climbing Miami Center
10:48PM 27.6242 -80.7517 165° South 98 113 2,000  Level Miami Center
10:49PM 27.6008 -80.7386 154° Southeast 98 113 2,000  Level Miami Center
10:50PM 27.5747 -80.7250 155° Southeast 98 113 2,000  Level Miami Center
10:51PM 27.5489 -80.7100 153° Southeast 99 114 2,000  Level Miami Center
10:52PM 27.5244 -80.6972 155° Southeast 98 113 2,000  Level Miami Center
10:53PM 27.5014 -80.6817 149° Southeast 97 112 2,000  Level Miami Center
10:54PM 27.5028 -80.6544 87° East 95 109 2,000  Level Miami Center